Latest Coastal Weather Observations for Yeppoon

IDQ60701

Issued at 2:21 pm EST Monday 1 May 2017 (issued every 10 minutes, with the page automatically refreshed every 10 minutes)

About coastal observations | Map of coastal stations | Coastal observations for QLD | Marine services | Other Formats
Station Details ID: 033294 Name: YEPPOON THE ESPLANADE Lat: -23.14 Lon: 150.75 Height: 5.5 m
Data from the previous 72 hours. | See also: Recent months at Yeppoon
Date/Time
EST
Temp
°C
Wind Pressure Rain since
9am
mm
Weather Cloud Vis
km
Sea
Height
m
Swell
Dir  Spd
kts
Gust
kts
hPa Trend Height
m
Period
s
Dir
01/02:00pm 24.8 ESE 11 14 1017.4 - 0.0 - - - - - - -
01/01:30pm 24.4 E 12 15 1017.4 - 0.0 - - - - - - -
01/01:00pm 24.4 ESE 12 15 1017.6 - 0.0 - - - - - - -
01/12:30pm 24.2 ESE 11 16 1018.0 - 0.0 - - - - - - -
01/12:00pm 24.5 ESE 10 13 1018.3 - 0.0 - - - - - - -
01/11:30am 24.2 ESE 10 15 1018.8 - 0.0 - - - - - - -
01/11:00am 24.2 ESE 11 15 1018.9 - 0.0 - - - - - - -
01/10:30am 23.9 ESE 11 15 1019.2 - 0.0 - - - - - - -
01/10:00am 23.2 SE 9 11 1019.5 - 0.0 - - - - - - -
01/09:30am 23.2 SE 9 13 1019.5 - 0.0 - - - - - - -
01/09:00am 22.6 SSE 11 15 1019.4 - 0.0 - - - - - - -
01/08:30am 22.2 SSE 8 13 1019.3 - 0.0 - - - - - - -
01/08:00am 20.9 S 7 11 1019.0 - 0.0 - - - - - - -
01/07:30am 20.1 SSW 5 7 1018.8 - 0.0 - - - - - - -
01/07:00am 18.9 SSW 5 7 1018.8 - 0.0 - - - - - - -
01/06:30am 18.7 S 5 8 1018.6 - 0.0 - - - - - - -
01/06:00am 18.9 SSW 9 12 1018.0 - 0.0 - - - - - - -
01/05:30am 19.1 S 7 9 1018.0 - 0.0 - - - - - - -
01/05:00am 19.4 S 6 8 1017.8 - 0.0 - - - - - - -
01/04:30am 19.8 S 6 9 1017.7 - 0.0 - - - - - - -
01/04:00am 20.2 S 5 7 1017.6 - 0.0 - - - - - - -
01/03:30am 20.2 S 5 8 1017.7 - 0.0 - - - - - - -
01/03:00am 20.2 SSE 5 7 1017.6 - 0.0 - - - - - - -
01/02:30am 20.6 S 5 7 1017.7 - 0.0 - - - - - - -
01/02:00am 20.6 S 7 10 1017.7 - 0.0 - - - - - - -
01/01:30am 20.8 S 6 8 1017.9 - 0.0 - - - - - - -
01/01:00am 21.3 S 6 9 1018.1 - 0.0 - - - - - - -
01/12:30am 21.4 S 5 8 1018.2 - 0.0 - - - - - - -
01/12:00am 21.8 S 6 9 1018.2 - 0.0 - - - - - - -
 
Date/Time
EST
Temp
°C
Wind Pressure Rain since
9am
mm
Weather Cloud Vis
km
Sea
Height
m
Swell
Dir  Spd
kts
Gust
kts
hPa Trend Height
m
Period
s
Dir
30/11:30pm 23.1 ESE 10 14 1018.4 - 0.0 - - - - - - -
30/11:00pm 23.0 SE 9 13 1018.4 - 0.0 - - - - - - -
30/10:30pm 23.0 ESE 8 13 1018.5 - 0.0 - - - - - - -
30/10:00pm 22.9 SE 8 12 1018.7 - 0.0 - - - - - - -
30/09:30pm 23.0 SE 9 14 1018.8 - 0.0 - - - - - - -
30/09:00pm 23.0 ESE 9 15 1018.8 - 0.0 - - - - - - -
30/08:30pm 23.1 ESE 9 13 1018.8 - 0.0 - - - - - - -
30/08:00pm 23.2 ESE 10 16 1018.8 - 0.0 - - - - - - -
30/07:30pm 23.1 ESE 8 12 1018.4 - 0.0 - - - - - - -
30/07:00pm 23.2 ESE 9 15 1018.1 - 0.0 - - - - - - -
30/06:30pm 23.2 ESE 10 15 1017.8 - 0.0 - - - - - - -
30/06:00pm 23.3 ESE 10 14 1017.7 - 0.0 - - - - - - -
30/05:30pm 23.6 ESE 9 13 1017.4 - 0.0 - - - - - - -
30/05:00pm 23.9 ESE 9 14 1017.0 - 0.0 - - - - - - -
30/04:30pm 24.2 ESE 9 13 1016.9 - 0.0 - - - - - - -
30/04:00pm 24.5 ESE 9 14 1016.6 - 0.0 - - - - - - -
30/03:30pm 24.7 ESE 10 14 1016.6 - 0.0 - - - - - - -
30/03:00pm 24.6 ESE 12 18 1016.4 - 0.0 - - - - - - -
30/02:30pm 25.1 ESE 11 15 1016.5 - 0.0 - - - - - - -
30/02:00pm 25.0 ESE 10 15 1016.7 - 0.0 - - - - - - -
30/01:30pm 24.9 ESE 12 15 1017.0 - 0.0 - - - - - - -
30/01:00pm 25.1 ESE 11 15 1017.3 - 0.0 - - - - - - -
30/12:30pm 25.0 ESE 11 15 1017.4 - 0.0 - - - - - - -
30/12:00pm 25.3 ESE 9 14 1017.7 - 0.0 - - - - - - -
30/11:30am 24.8 SE 10 15 1018.1 - 0.0 - - - - - - -
30/11:00am 24.0 SE 11 17 1018.7 - 0.0 - - - - - - -
30/10:30am 24.1 SE 10 16 1019.0 - 0.0 - - - - - - -
30/10:00am 23.7 SSE 11 16 1019.1 - 0.0 - - - - - - -
30/09:30am 23.4 SSE 12 16 1019.2 - 0.0 - - - - - - -
30/09:00am 22.5 SSE 10 14 1019.4 - 0.0 - - - - - - -
30/08:30am 21.4 S 6 9 1019.1 - 0.0 - - - - - - -
30/08:00am 20.4 S 7 10 1019.1 - 0.0 - - - - - - -
30/07:30am 19.7 S 7 10 1018.9 - 0.0 - - - - - - -
30/07:00am 18.3 SSW 6 9 1018.8 - 0.0 - - - - - - -
30/06:30am 17.9 S 7 11 1018.4 - 0.0 - - - - - - -
30/06:00am 17.8 S 5 7 1018.0 - 0.0 - - - - - - -
30/05:30am 17.8 S 5 7 1017.5 - 0.0 - - - - - - -
30/05:00am 17.9 S 5 7 1017.4 - 0.0 - - - - - - -
30/04:30am 18.5 S 5 7 1017.3 - 0.0 - - - - - - -
30/04:00am 18.6 S 6 8 1017.1 - 0.0 - - - - - - -
30/03:30am 18.2 S 5 7 1017.2 - 0.0 - - - - - - -
30/03:00am 18.3 S 3 4 1017.0 - 0.0 - - - - - - -
30/02:30am 18.6 S 4 6 1017.1 - 0.0 - - - - - - -
30/02:00am 18.9 S 4 5 1017.3 - 0.0 - - - - - - -
30/01:30am 19.2 S 3 5 1017.2 - 0.0 - - - - - - -
30/01:00am 19.4 S 4 5 1017.2 - 0.0 - - - - - - -
30/12:30am 19.7 S 4 5 1017.5 - 0.0 - - - - - - -
30/12:00am 20.1 S 4 5 1017.5 - 0.0 - - - - - - -
 
Date/Time
EST
Temp
°C
Wind Pressure Rain since
9am
mm
Weather Cloud Vis
km
Sea
Height
m
Swell
Dir  Spd
kts
Gust
kts
hPa Trend Height
m
Period
s
Dir
29/11:30pm 20.6 S 5 6 1017.6 - 0.0 - - - - - - -
29/11:00pm 21.2 SSE 5 8 1017.7 - 0.0 - - - - - - -
29/10:30pm 21.1 ESE 3 6 1017.9 - 0.0 - - - - - - -
29/10:00pm 21.9 ESE 3 5 1017.9 - 0.0 - - - - - - -
29/09:30pm 23.0 ESE 5 9 1017.9 - 0.0 - - - - - - -
29/09:00pm 23.2 ESE 7 10 1017.9 - 0.0 - - - - - - -
29/08:30pm 23.1 ESE 7 11 1017.7 - 0.0 - - - - - - -
29/08:00pm 23.1 E 9 11 1017.5 - 0.0 - - - - - - -
29/07:30pm 23.1 ESE 8 12 1017.2 - 0.0 - - - - - - -
29/07:00pm 23.1 E 9 12 1017.0 - 0.0 - - - - - - -
29/06:30pm 23.2 ESE 11 15 1016.6 - 0.0 - - - - - - -
29/06:00pm 23.3 ESE 8 12 1016.5 - 0.0 - - - - - - -
29/05:30pm 23.5 ESE 8 13 1016.6 - 0.0 - - - - - - -
29/05:00pm 23.8 ESE 9 13 1016.3 - 0.0 - - - - - - -
29/04:30pm 23.7 E 9 11 1016.2 - 0.0 - - - - - - -
29/04:00pm 23.8 E 10 13 1016.2 - 0.0 - - - - - - -
29/03:30pm 23.6 E 10 13 1016.1 - 0.0 - - - - - - -
29/03:00pm 24.0 ESE 8 11 1016.2 - 0.0 - - - - - - -
29/02:30pm 23.9 E 9 10 1016.3 - 0.0 - - - - - - -
29/02:00pm 23.6 E 8 10 1016.5 - 0.0 - - - - - - -
29/01:30pm 24.3 ESE 8 10 1016.8 - 0.0 - - - - - - -
29/01:00pm 24.2 SE 9 12 1017.1 - 0.0 - - - - - - -
29/12:30pm 23.8 SE 8 11 1017.6 - 0.0 - - - - - - -
29/12:00pm 22.8 E 8 10 1017.8 - 0.0 - - - - - - -
29/11:30am 23.1 ESE 8 11 1018.1 - 0.0 - - - - - - -
29/11:00am 22.6 ESE 9 12 1018.3 - 0.0 - - - - - - -
29/10:30am 22.7 SSE 9 14 1018.6 - 0.0 - - - - - - -
29/10:00am 22.3 SSE 11 15 1018.6 - 0.0 - - - - - - -
29/09:30am 22.2 SSE 9 13 1018.6 - 0.0 - - - - - - -
29/09:00am 21.0 S 8 11 1018.5 - 0.0 - - - - - - -
29/08:30am 19.7 SW 7 13 1018.4 - 0.0 - - - - - - -
29/08:00am 16.5 W 6 9 1018.0 - 0.0 - - - - - - -
29/07:30am 14.3 W 6 8 1017.9 - 0.0 - - - - - - -
29/07:00am 12.9 WSW 7 10 1017.7 - 0.0 - - - - - - -
29/06:30am 12.1 W 7 11 1017.3 - 0.0 - - - - - - -
29/06:00am 12.3 W 9 12 1017.0 - 0.0 - - - - - - -
29/05:30am 12.5 W 9 11 1016.7 - 0.0 - - - - - - -
29/05:00am 12.4 W 9 11 1016.4 - 0.0 - - - - - - -
29/04:30am 12.3 WSW 9 12 1016.2 - 0.0 - - - - - - -
29/04:00am 12.8 WSW 8 12 1016.1 - 0.0 - - - - - - -
29/03:30am 12.7 WSW 8 11 1016.2 - 0.0 - - - - - - -
29/03:00am 12.4 WSW 8 11 1016.2 - 0.0 - - - - - - -
29/02:30am 13.3 W 11 13 1016.3 - 0.0 - - - - - - -
29/02:00am 13.4 WSW 9 11 1016.4 - 0.0 - - - - - - -
29/01:30am 13.7 W 8 11 1016.6 - 0.0 - - - - - - -
29/01:00am 13.5 W 8 11 1016.8 - 0.0 - - - - - - -
29/12:30am 13.1 WSW 7 9 1016.9 - 0.0 - - - - - - -
29/12:00am 13.0 W 6 9 1017.1 - 0.0 - - - - - - -
 
Date/Time
EST
Temp
°C
Wind Pressure Rain since
9am
mm
Weather Cloud Vis
km
Sea
Height
m
Swell
Dir  Spd
kts
Gust
kts
hPa Trend Height
m
Period
s
Dir
28/11:30pm 13.1 WNW 7 9 1017.3 - 0.0 - - - - - - -
28/11:00pm 13.9 WNW 4 6 1017.4 - 0.0 - - - - - - -
28/10:30pm 14.0 WNW 7 10 1017.7 - 0.0 - - - - - - -
28/10:00pm 14.0 W 7 8 1017.6 - 0.0 - - - - - - -
28/09:30pm 13.4 W 5 8 1017.6 - 0.0 - - - - - - -
28/09:00pm 13.8 W 5 7 1017.6 - 0.0 - - - - - - -
28/08:30pm 14.3 W 5 7 1017.5 - 0.0 - - - - - - -
28/08:00pm 14.5 WNW 6 8 1017.3 - 0.0 - - - - - - -
28/07:30pm 14.9 WNW 7 9 1016.9 - 0.0 - - - - - - -
28/07:00pm 15.9 WNW 5 7 1016.7 - 0.0 - - - - - - -
28/06:30pm 16.7 WSW 4 6 1016.4 - 0.0 - - - - - - -
28/06:00pm 17.8 SSW 3 4 1016.1 - 0.0 - - - - - - -
28/05:30pm 19.6 SSW 4 4 1015.6 - 0.0 - - - - - - -
28/05:00pm 21.3 SSW 5 7 1015.4 - 0.0 - - - - - - -
28/04:30pm 22.0 SSW 7 10 1014.9 - 0.0 - - - - - - -
28/04:00pm 22.0 S 7 11 1014.7 - 0.0 - - - - - - -
28/03:30pm 22.0 SSE 7 10 1014.6 - 0.0 - - - - - - -
28/03:00pm 22.4 S 8 11 1014.5 - 0.0 - - - - - - -
28/02:30pm 22.5 SSE 8 14 1014.4 - 0.0 - - - - - - -

Other Formats:

Comma delimited format used in spreadsheet applications
http://www.bom.gov.au/fwo/IDQ60701/IDQ60701.94373.axf

JavaScript Object Notation format (JSON) in row-major order
http://www.bom.gov.au/fwo/IDQ60701/IDQ60701.94373.json